Terminal Aerodrome Forecast
Issued by NWS

Home | Current Version | Previous Version | Text Only | Print | Product List | Glossary On
Versions: 1 2 3 4 5 6 7 8 9 10 11 12 13 14 15 16 17 18 19 20 21 22 23 24 25 26 27 28 29 30
000
FTUS45 KBOI 300848 AAA
TAFJER
TAF AMD
KJER 300848Z 3009/3106 VRB06KT P6SM -SHRA OVC020
      TEMPO 3009/3013 1SM -SHRA BR BKN003 OVC007
     FM301300 10010KT P6SM BKN040
     FM301600 25020G30KT 4SM -RA OVC025
     FM301900 25030G40KT 4SM -RA OVC009
     FM310400 24020KT P6SM -SHRA BKN020=

USA.gov is the U.S. government's official web portal to all federal, state and local government web resources and services.